Sunnyvale, Texas
Current Conditions -  °F | °C
As of 12:57 PM on Monday 24 Nov 2014 (Local Time) from KHQZ Reporting Station
Clear Clear  
Wind Chill: 59°   Ceiling: Unl
Heat Index: 59°   Visibility: 10mi
Dew Point: 25°   Wind: 8mph
Humidity: 27%   Direction: 310°NW
Pressure: 30.06"   Gusts: NA
Location:  32.8°N, 96.56°W
Report Text: KHQZ 241857Z 31007KT 10SM CLR 15/M04 A3006
Loading
Personal Weather Stations






























Interactive Weather Map New forecast layout! Learn more

10-Day Weather Forecast

Advertisements
Track Severe Weather on mobile